sensor_id;sensor_type;location;lat;lon;timestamp;P1;durP1;ratioP1;P2;durP2;ratioP2
75005;SDS011;63553;51.814;4.600;2023-07-24T00:01:38;2.33;;;2.13;;
75005;SDS011;63553;51.814;4.600;2023-07-24T00:04:03;1.45;;;1.35;;
75005;SDS011;63553;51.814;4.600;2023-07-24T00:06:29;2.22;;;1.70;;
75005;SDS011;63553;51.814;4.600;2023-07-24T00:08:54;3.33;;;1.97;;
75005;SDS011;63553;51.814;4.600;2023-07-24T00:11:19;2.17;;;1.63;;
75005;SDS011;63553;51.814;4.600;2023-07-24T00:13:45;1.60;;;1.50;;
75005;SDS011;63553;51.814;4.600;2023-07-24T00:16:10;1.40;;;1.30;;
75005;SDS011;63553;51.814;4.600;2023-07-24T00:18:35;1.50;;;1.40;;
75005;SDS011;63553;51.814;4.600;2023-07-24T00:21:01;3.83;;;1.63;;
75005;SDS011;63553;51.814;4.600;2023-07-24T00:23:26;1.60;;;1.50;;
75005;SDS011;63553;51.814;4.600;2023-07-24T00:25:52;1.90;;;1.80;;
75005;SDS011;63553;51.814;4.600;2023-07-24T00:28:18;1.80;;;1.40;;
75005;SDS011;63553;51.814;4.600;2023-07-24T00:30:43;1.40;;;1.30;;
75005;SDS011;63553;51.814;4.600;2023-07-24T00:33:08;1.52;;;1.40;;
75005;SDS011;63553;51.814;4.600;2023-07-24T00:35:34;2.25;;;1.38;;
75005;SDS011;63553;51.814;4.600;2023-07-24T00:37:59;1.30;;;1.30;;
75005;SDS011;63553;51.814;4.600;2023-07-24T00:40:24;1.40;;;1.30;;
75005;SDS011;63553;51.814;4.600;2023-07-24T00:42:50;1.40;;;1.30;;
75005;SDS011;63553;51.814;4.600;2023-07-24T00:45:15;1.50;;;1.40;;
75005;SDS011;63553;51.814;4.600;2023-07-24T00:47:41;1.55;;;1.45;;
75005;SDS011;63553;51.814;4.600;2023-07-24T00:50:07;1.30;;;1.30;;
75005;SDS011;63553;51.814;4.600;2023-07-24T00:52:34;1.58;;;1.48;;
75005;SDS011;63553;51.814;4.600;2023-07-24T00:55:00;1.35;;;1.25;;
75005;SDS011;63553;51.814;4.600;2023-07-24T00:57:26;1.63;;;1.48;;
75005;SDS011;63553;51.814;4.600;2023-07-24T00:59:51;1.25;;;1.17;;
75005;SDS011;63553;51.814;4.600;2023-07-24T01:02:17;2.78;;;1.80;;
75005;SDS011;63553;51.814;4.600;2023-07-24T01:04:42;4.28;;;1.90;;
75005;SDS011;63553;51.814;4.600;2023-07-24T01:07:08;1.50;;;1.40;;
75005;SDS011;63553;51.814;4.600;2023-07-24T01:09:34;1.65;;;1.50;;
75005;SDS011;63553;51.814;4.600;2023-07-24T01:12:03;1.90;;;1.80;;
75005;SDS011;63553;51.814;4.600;2023-07-24T01:14:41;2.25;;;1.50;;
75005;SDS011;63553;51.814;4.600;2023-07-24T01:17:20;1.52;;;1.42;;
75005;SDS011;63553;51.814;4.600;2023-07-24T01:19:49;1.70;;;1.60;;
75005;SDS011;63553;51.814;4.600;2023-07-24T01:27:57;1.50;;;1.40;;
75005;SDS011;63553;51.814;4.600;2023-07-24T01:30:22;3.03;;;1.58;;
75005;SDS011;63553;51.814;4.600;2023-07-24T01:32:48;1.42;;;1.33;;
75005;SDS011;63553;51.814;4.600;2023-07-24T01:35:13;1.33;;;1.30;;
75005;SDS011;63553;51.814;4.600;2023-07-24T01:37:39;1.55;;;1.45;;
75005;SDS011;63553;51.814;4.600;2023-07-24T01:40:07;2.90;;;2.10;;
75005;SDS011;63553;51.814;4.600;2023-07-24T01:42:34;1.63;;;1.52;;
75005;SDS011;63553;51.814;4.600;2023-07-24T01:45:00;2.30;;;1.60;;
75005;SDS011;63553;51.814;4.600;2023-07-24T01:47:27;1.85;;;1.75;;
75005;SDS011;63553;51.814;4.600;2023-07-24T01:49:56;1.92;;;1.80;;
75005;SDS011;63553;51.814;4.600;2023-07-24T01:52:21;1.85;;;1.75;;
75005;SDS011;63553;51.814;4.600;2023-07-24T01:54:46;2.03;;;1.83;;
75005;SDS011;63553;51.814;4.600;2023-07-24T01:57:12;1.88;;;1.70;;
75005;SDS011;63553;51.814;4.600;2023-07-24T01:59:37;2.45;;;1.90;;
75005;SDS011;63553;51.814;4.600;2023-07-24T02:02:02;2.03;;;1.85;;
75005;SDS011;63553;51.814;4.600;2023-07-24T02:04:28;2.05;;;1.95;;
75005;SDS011;63553;51.814;4.600;2023-07-24T02:06:53;2.10;;;1.90;;
75005;SDS011;63553;51.814;4.600;2023-07-24T02:09:19;1.80;;;1.70;;
75005;SDS011;63553;51.814;4.600;2023-07-24T02:11:44;2.53;;;1.92;;
75005;SDS011;63553;51.814;4.600;2023-07-24T02:14:11;1.67;;;1.52;;
75005;SDS011;63553;51.814;4.600;2023-07-24T02:16:37;3.00;;;2.03;;
75005;SDS011;63553;51.814;4.600;2023-07-24T02:19:03;1.75;;;1.65;;
75005;SDS011;63553;51.814;4.600;2023-07-24T02:21:28;2.30;;;2.10;;
75005;SDS011;63553;51.814;4.600;2023-07-24T02:23:54;1.73;;;1.63;;
75005;SDS011;63553;51.814;4.600;2023-07-24T02:26:19;1.67;;;1.58;;
75005;SDS011;63553;51.814;4.600;2023-07-24T02:28:45;2.28;;;2.00;;
75005;SDS011;63553;51.814;4.600;2023-07-24T02:31:10;2.00;;;1.80;;
75005;SDS011;63553;51.814;4.600;2023-07-24T02:33:36;2.28;;;2.08;;
75005;SDS011;63553;51.814;4.600;2023-07-24T02:36:01;2.30;;;2.10;;
75005;SDS011;63553;51.814;4.600;2023-07-24T02:38:27;2.50;;;2.30;;
75005;SDS011;63553;51.814;4.600;2023-07-24T02:40:52;2.27;;;2.07;;
75005;SDS011;63553;51.814;4.600;2023-07-24T02:43:17;2.38;;;2.08;;
75005;SDS011;63553;51.814;4.600;2023-07-24T02:45:43;3.58;;;2.13;;
75005;SDS011;63553;51.814;4.600;2023-07-24T02:48:08;3.63;;;1.80;;
75005;SDS011;63553;51.814;4.600;2023-07-24T02:50:33;3.40;;;2.10;;
75005;SDS011;63553;51.814;4.600;2023-07-24T02:52:59;4.18;;;2.17;;
75005;SDS011;63553;51.814;4.600;2023-07-24T02:55:24;2.00;;;1.80;;
75005;SDS011;63553;51.814;4.600;2023-07-24T02:57:50;2.20;;;2.00;;
75005;SDS011;63553;51.814;4.600;2023-07-24T03:00:16;2.22;;;2.05;;
75005;SDS011;63553;51.814;4.600;2023-07-24T03:02:41;2.38;;;1.60;;
75005;SDS011;63553;51.814;4.600;2023-07-24T03:05:07;1.97;;;1.80;;
75005;SDS011;63553;51.814;4.600;2023-07-24T03:07:32;3.28;;;2.35;;
75005;SDS011;63553;51.814;4.600;2023-07-24T03:09:58;2.08;;;1.88;;
75005;SDS011;63553;51.814;4.600;2023-07-24T03:12:23;1.80;;;1.70;;
75005;SDS011;63553;51.814;4.600;2023-07-24T03:14:49;2.17;;;1.98;;
75005;SDS011;63553;51.814;4.600;2023-07-24T03:17:14;2.63;;;1.90;;
75005;SDS011;63553;51.814;4.600;2023-07-24T03:19:40;4.53;;;2.43;;
75005;SDS011;63553;51.814;4.600;2023-07-24T03:22:06;2.60;;;2.15;;
75005;SDS011;63553;51.814;4.600;2023-07-24T03:24:32;2.58;;;1.92;;
75005;SDS011;63553;51.814;4.600;2023-07-24T03:26:58;2.20;;;1.98;;
75005;SDS011;63553;51.814;4.600;2023-07-24T03:29:25;3.83;;;2.38;;
75005;SDS011;63553;51.814;4.600;2023-07-24T03:31:50;3.28;;;2.53;;
75005;SDS011;63553;51.814;4.600;2023-07-24T03:34:15;4.67;;;2.50;;
75005;SDS011;63553;51.814;4.600;2023-07-24T03:36:41;2.60;;;2.07;;
75005;SDS011;63553;51.814;4.600;2023-07-24T03:39:07;1.70;;;1.60;;
75005;SDS011;63553;51.814;4.600;2023-07-24T03:41:34;2.10;;;1.90;;
75005;SDS011;63553;51.814;4.600;2023-07-24T03:43:59;2.13;;;1.80;;
75005;SDS011;63553;51.814;4.600;2023-07-24T03:46:25;2.27;;;2.07;;
75005;SDS011;63553;51.814;4.600;2023-07-24T03:48:50;1.70;;;1.60;;
75005;SDS011;63553;51.814;4.600;2023-07-24T03:51:16;2.35;;;2.15;;
75005;SDS011;63553;51.814;4.600;2023-07-24T03:53:41;2.20;;;2.00;;
75005;SDS011;63553;51.814;4.600;2023-07-24T03:56:06;2.22;;;1.95;;
75005;SDS011;63553;51.814;4.600;2023-07-24T03:58:32;2.08;;;1.70;;
75005;SDS011;63553;51.814;4.600;2023-07-24T04:00:57;2.40;;;2.10;;
75005;SDS011;63553;51.814;4.600;2023-07-24T04:03:22;2.30;;;2.10;;
75005;SDS011;63553;51.814;4.600;2023-07-24T04:05:48;4.75;;;2.85;;
75005;SDS011;63553;51.814;4.600;2023-07-24T04:08:13;5.13;;;3.20;;
75005;SDS011;63553;51.814;4.600;2023-07-24T04:10:38;2.53;;;2.33;;
75005;SDS011;63553;51.814;4.600;2023-07-24T04:13:04;2.97;;;2.60;;
75005;SDS011;63553;51.814;4.600;2023-07-24T04:15:29;10.48;;;2.45;;
75005;SDS011;63553;51.814;4.600;2023-07-24T04:17:55;4.00;;;2.33;;
75005;SDS011;63553;51.814;4.600;2023-07-24T04:20:20;5.27;;;3.50;;
75005;SDS011;63553;51.814;4.600;2023-07-24T04:22:45;6.27;;;4.10;;
75005;SDS011;63553;51.814;4.600;2023-07-24T04:25:11;21.33;;;5.43;;
75005;SDS011;63553;51.814;4.600;2023-07-24T04:27:36;10.02;;;3.83;;
75005;SDS011;63553;51.814;4.600;2023-07-24T04:30:01;6.53;;;3.57;;
75005;SDS011;63553;51.814;4.600;2023-07-24T04:32:27;5.20;;;3.05;;
75005;SDS011;63553;51.814;4.600;2023-07-24T04:34:52;4.85;;;3.40;;
75005;SDS011;63553;51.814;4.600;2023-07-24T04:37:18;3.17;;;2.30;;
75005;SDS011;63553;51.814;4.600;2023-07-24T04:39:43;3.83;;;2.75;;
75005;SDS011;63553;51.814;4.600;2023-07-24T04:42:09;3.83;;;3.13;;
75005;SDS011;63553;51.814;4.600;2023-07-24T04:44:34;2.50;;;2.30;;
75005;SDS011;63553;51.814;4.600;2023-07-24T04:47:00;3.80;;;2.97;;
75005;SDS011;63553;51.814;4.600;2023-07-24T04:49:30;5.88;;;3.80;;
75005;SDS011;63553;51.814;4.600;2023-07-24T04:51:55;5.95;;;3.15;;
75005;SDS011;63553;51.814;4.600;2023-07-24T04:54:21;3.05;;;2.60;;
75005;SDS011;63553;51.814;4.600;2023-07-24T04:56:46;3.13;;;2.63;;
75005;SDS011;63553;51.814;4.600;2023-07-24T04:59:12;5.93;;;3.77;;
75005;SDS011;63553;51.814;4.600;2023-07-24T05:01:37;6.60;;;4.00;;
75005;SDS011;63553;51.814;4.600;2023-07-24T05:04:02;4.63;;;2.80;;
75005;SDS011;63553;51.814;4.600;2023-07-24T05:06:28;7.45;;;3.67;;
75005;SDS011;63553;51.814;4.600;2023-07-24T05:08:53;5.97;;;3.90;;
75005;SDS011;63553;51.814;4.600;2023-07-24T05:11:19;7.65;;;4.25;;
75005;SDS011;63553;51.814;4.600;2023-07-24T05:13:44;5.30;;;3.60;;
75005;SDS011;63553;51.814;4.600;2023-07-24T05:16:10;4.30;;;3.20;;
75005;SDS011;63553;51.814;4.600;2023-07-24T05:18:35;4.13;;;2.87;;
75005;SDS011;63553;51.814;4.600;2023-07-24T05:21:00;6.22;;;3.92;;
75005;SDS011;63553;51.814;4.600;2023-07-24T05:23:26;3.53;;;2.65;;
75005;SDS011;63553;51.814;4.600;2023-07-24T05:25:58;4.88;;;3.80;;
75005;SDS011;63553;51.814;4.600;2023-07-24T05:28:25;3.75;;;2.80;;
75005;SDS011;63553;51.814;4.600;2023-07-24T05:30:51;3.95;;;2.80;;
75005;SDS011;63553;51.814;4.600;2023-07-24T05:33:16;6.00;;;4.15;;
75005;SDS011;63553;51.814;4.600;2023-07-24T05:35:42;4.03;;;3.20;;
75005;SDS011;63553;51.814;4.600;2023-07-24T05:38:08;4.07;;;3.45;;
75005;SDS011;63553;51.814;4.600;2023-07-24T05:40:33;3.45;;;3.08;;
75005;SDS011;63553;51.814;4.600;2023-07-24T05:42:59;4.20;;;3.65;;
75005;SDS011;63553;51.814;4.600;2023-07-24T05:45:24;3.20;;;2.90;;
75005;SDS011;63553;51.814;4.600;2023-07-24T05:47:49;7.93;;;4.13;;
75005;SDS011;63553;51.814;4.600;2023-07-24T05:50:15;6.82;;;4.43;;
75005;SDS011;63553;51.814;4.600;2023-07-24T05:52:40;3.15;;;2.83;;
75005;SDS011;63553;51.814;4.600;2023-07-24T05:55:09;3.58;;;2.90;;
75005;SDS011;63553;51.814;4.600;2023-07-24T05:57:34;5.45;;;3.88;;
75005;SDS011;63553;51.814;4.600;2023-07-24T05:59:59;3.42;;;3.10;;
75005;SDS011;63553;51.814;4.600;2023-07-24T06:02:25;5.47;;;3.87;;
75005;SDS011;63553;51.814;4.600;2023-07-24T06:04:50;5.60;;;3.97;;
75005;SDS011;63553;51.814;4.600;2023-07-24T06:07:15;5.40;;;3.40;;
75005;SDS011;63553;51.814;4.600;2023-07-24T06:09:41;8.02;;;4.15;;
75005;SDS011;63553;51.814;4.600;2023-07-24T06:12:06;4.80;;;3.40;;
75005;SDS011;63553;51.814;4.600;2023-07-24T06:14:32;5.32;;;3.70;;
75005;SDS011;63553;51.814;4.600;2023-07-24T06:16:57;3.38;;;2.80;;
75005;SDS011;63553;51.814;4.600;2023-07-24T06:19:22;7.50;;;3.78;;
75005;SDS011;63553;51.814;4.600;2023-07-24T06:21:48;5.30;;;3.65;;
75005;SDS011;63553;51.814;4.600;2023-07-24T06:24:13;4.23;;;3.13;;
75005;SDS011;63553;51.814;4.600;2023-07-24T06:26:39;4.28;;;3.50;;
75005;SDS011;63553;51.814;4.600;2023-07-24T06:29:04;6.35;;;3.78;;
75005;SDS011;63553;51.814;4.600;2023-07-24T06:31:30;5.20;;;3.03;;
75005;SDS011;63553;51.814;4.600;2023-07-24T06:33:55;5.40;;;3.67;;
75005;SDS011;63553;51.814;4.600;2023-07-24T06:36:20;6.60;;;3.30;;
75005;SDS011;63553;51.814;4.600;2023-07-24T06:38:46;5.28;;;3.55;;
75005;SDS011;63553;51.814;4.600;2023-07-24T06:41:12;5.40;;;3.58;;
75005;SDS011;63553;51.814;4.600;2023-07-24T06:43:40;5.53;;;3.70;;
75005;SDS011;63553;51.814;4.600;2023-07-24T06:46:06;5.63;;;3.67;;
75005;SDS011;63553;51.814;4.600;2023-07-24T06:48:31;4.55;;;3.60;;
75005;SDS011;63553;51.814;4.600;2023-07-24T06:50:57;10.65;;;4.68;;
75005;SDS011;63553;51.814;4.600;2023-07-24T06:53:22;8.75;;;4.22;;
75005;SDS011;63553;51.814;4.600;2023-07-24T06:55:48;11.02;;;4.32;;
75005;SDS011;63553;51.814;4.600;2023-07-24T06:58:13;10.90;;;5.68;;
75005;SDS011;63553;51.814;4.600;2023-07-24T07:00:38;9.48;;;4.28;;
75005;SDS011;63553;51.814;4.600;2023-07-24T07:03:04;5.40;;;4.70;;
75005;SDS011;63553;51.814;4.600;2023-07-24T07:05:31;6.57;;;3.67;;
75005;SDS011;63553;51.814;4.600;2023-07-24T07:07:56;5.53;;;3.60;;
75005;SDS011;63553;51.814;4.600;2023-07-24T07:10:22;9.23;;;4.40;;
75005;SDS011;63553;51.814;4.600;2023-07-24T07:12:47;5.45;;;3.55;;
75005;SDS011;63553;51.814;4.600;2023-07-24T07:15:13;6.82;;;3.80;;
75005;SDS011;63553;51.814;4.600;2023-07-24T07:17:38;4.72;;;4.00;;
75005;SDS011;63553;51.814;4.600;2023-07-24T07:20:04;4.40;;;4.00;;
75005;SDS011;63553;51.814;4.600;2023-07-24T07:22:30;5.43;;;4.53;;
75005;SDS011;63553;51.814;4.600;2023-07-24T07:24:55;6.18;;;4.32;;
75005;SDS011;63553;51.814;4.600;2023-07-24T07:27:20;4.93;;;4.43;;
75005;SDS011;63553;51.814;4.600;2023-07-24T07:29:46;6.15;;;3.53;;
75005;SDS011;63553;51.814;4.600;2023-07-24T07:32:11;4.80;;;3.50;;
75005;SDS011;63553;51.814;4.600;2023-07-24T07:34:37;5.78;;;3.97;;
75005;SDS011;63553;51.814;4.600;2023-07-24T07:37:03;5.05;;;3.88;;
75005;SDS011;63553;51.814;4.600;2023-07-24T07:39:29;5.78;;;3.67;;
75005;SDS011;63553;51.814;4.600;2023-07-24T07:41:55;7.30;;;4.72;;
75005;SDS011;63553;51.814;4.600;2023-07-24T07:44:20;6.30;;;3.58;;
75005;SDS011;63553;51.814;4.600;2023-07-24T07:46:46;5.20;;;3.80;;
75005;SDS011;63553;51.814;4.600;2023-07-24T07:49:11;6.70;;;4.88;;
75005;SDS011;63553;51.814;4.600;2023-07-24T07:51:36;6.80;;;4.30;;
75005;SDS011;63553;51.814;4.600;2023-07-24T07:54:02;6.57;;;4.38;;
75005;SDS011;63553;51.814;4.600;2023-07-24T07:56:27;6.25;;;4.43;;
75005;SDS011;63553;51.814;4.600;2023-07-24T07:58:53;8.23;;;4.40;;
75005;SDS011;63553;51.814;4.600;2023-07-24T08:01:19;4.90;;;4.00;;
75005;SDS011;63553;51.814;4.600;2023-07-24T08:03:44;6.55;;;4.25;;
75005;SDS011;63553;51.814;4.600;2023-07-24T08:06:10;6.45;;;3.90;;
75005;SDS011;63553;51.814;4.600;2023-07-24T08:08:35;5.07;;;3.78;;
75005;SDS011;63553;51.814;4.600;2023-07-24T08:11:07;3.95;;;3.55;;
75005;SDS011;63553;51.814;4.600;2023-07-24T08:13:32;6.50;;;3.72;;
75005;SDS011;63553;51.814;4.600;2023-07-24T08:15:58;4.70;;;3.55;;
75005;SDS011;63553;51.814;4.600;2023-07-24T08:18:24;4.43;;;3.08;;
75005;SDS011;63553;51.814;4.600;2023-07-24T08:20:50;3.80;;;3.28;;
75005;SDS011;63553;51.814;4.600;2023-07-24T08:23:16;4.07;;;3.10;;
75005;SDS011;63553;51.814;4.600;2023-07-24T08:25:50;5.00;;;3.40;;
75005;SDS011;63553;51.814;4.600;2023-07-24T08:28:17;5.18;;;3.35;;
75005;SDS011;63553;51.814;4.600;2023-07-24T08:30:42;4.20;;;3.58;;
75005;SDS011;63553;51.814;4.600;2023-07-24T08:33:07;5.10;;;3.10;;
75005;SDS011;63553;51.814;4.600;2023-07-24T08:35:33;5.13;;;3.13;;
75005;SDS011;63553;51.814;4.600;2023-07-24T08:37:58;4.67;;;3.00;;
75005;SDS011;63553;51.814;4.600;2023-07-24T08:40:23;5.40;;;3.30;;
75005;SDS011;63553;51.814;4.600;2023-07-24T08:42:49;4.27;;;3.10;;
75005;SDS011;63553;51.814;4.600;2023-07-24T08:45:15;5.38;;;3.00;;
75005;SDS011;63553;51.814;4.600;2023-07-24T08:47:42;3.90;;;2.67;;
75005;SDS011;63553;51.814;4.600;2023-07-24T08:50:11;5.10;;;3.20;;
75005;SDS011;63553;51.814;4.600;2023-07-24T08:52:38;4.13;;;3.10;;
75005;SDS011;63553;51.814;4.600;2023-07-24T08:55:04;6.35;;;3.30;;
75005;SDS011;63553;51.814;4.600;2023-07-24T08:57:30;8.13;;;3.10;;
75005;SDS011;63553;51.814;4.600;2023-07-24T08:59:56;3.67;;;3.38;;
75005;SDS011;63553;51.814;4.600;2023-07-24T09:02:21;3.97;;;2.88;;
75005;SDS011;63553;51.814;4.600;2023-07-24T09:04:46;5.70;;;3.17;;
75005;SDS011;63553;51.814;4.600;2023-07-24T09:07:12;4.77;;;3.33;;
75005;SDS011;63553;51.814;4.600;2023-07-24T09:09:39;6.93;;;3.90;;
75005;SDS011;63553;51.814;4.600;2023-07-24T09:12:05;5.13;;;3.80;;
75005;SDS011;63553;51.814;4.600;2023-07-24T09:14:30;4.70;;;2.90;;
75005;SDS011;63553;51.814;4.600;2023-07-24T09:17:04;3.10;;;2.80;;
75005;SDS011;63553;51.814;4.600;2023-07-24T09:19:34;4.80;;;2.97;;
75005;SDS011;63553;51.814;4.600;2023-07-24T09:22:13;5.63;;;3.80;;
75005;SDS011;63553;51.814;4.600;2023-07-24T09:24:49;8.63;;;3.83;;
75005;SDS011;63553;51.814;4.600;2023-07-24T09:29:42;4.72;;;3.50;;
75005;SDS011;63553;51.814;4.600;2023-07-24T09:32:08;5.65;;;3.78;;
75005;SDS011;63553;51.814;4.600;2023-07-24T09:34:44;6.65;;;3.47;;
75005;SDS011;63553;51.814;4.600;2023-07-24T09:37:09;4.30;;;3.08;;
75005;SDS011;63553;51.814;4.600;2023-07-24T09:39:34;7.43;;;2.97;;
75005;SDS011;63553;51.814;4.600;2023-07-24T09:42:03;5.43;;;3.03;;
75005;SDS011;63553;51.814;4.600;2023-07-24T09:44:30;7.07;;;3.35;;
75005;SDS011;63553;51.814;4.600;2023-07-24T09:46:58;3.88;;;3.03;;
75005;SDS011;63553;51.814;4.600;2023-07-24T09:49:24;5.85;;;2.92;;
75005;SDS011;63553;51.814;4.600;2023-07-24T09:51:49;3.58;;;3.08;;
75005;SDS011;63553;51.814;4.600;2023-07-24T09:54:22;2.90;;;2.50;;
75005;SDS011;63553;51.814;4.600;2023-07-24T09:56:54;4.38;;;2.60;;
75005;SDS011;63553;51.814;4.600;2023-07-24T09:59:21;3.83;;;2.90;;
75005;SDS011;63553;51.814;4.600;2023-07-24T10:01:48;4.13;;;2.63;;
75005;SDS011;63553;51.814;4.600;2023-07-24T10:04:14;5.38;;;2.75;;
75005;SDS011;63553;51.814;4.600;2023-07-24T10:06:41;4.25;;;2.90;;
75005;SDS011;63553;51.814;4.600;2023-07-24T10:09:07;4.25;;;2.85;;
75005;SDS011;63553;51.814;4.600;2023-07-24T10:11:33;6.18;;;3.25;;
75005;SDS011;63553;51.814;4.600;2023-07-24T10:13:59;4.95;;;3.15;;
75005;SDS011;63553;51.814;4.600;2023-07-24T10:16:25;3.00;;;2.67;;
75005;SDS011;63553;51.814;4.600;2023-07-24T10:18:50;3.08;;;2.50;;
75005;SDS011;63553;51.814;4.600;2023-07-24T10:21:15;3.77;;;2.60;;
75005;SDS011;63553;51.814;4.600;2023-07-24T10:23:44;3.88;;;2.72;;
75005;SDS011;63553;51.814;4.600;2023-07-24T10:26:13;4.85;;;3.00;;
75005;SDS011;63553;51.814;4.600;2023-07-24T10:28:40;3.17;;;2.55;;
75005;SDS011;63553;51.814;4.600;2023-07-24T10:31:07;3.50;;;3.05;;
75005;SDS011;63553;51.814;4.600;2023-07-24T10:33:46;5.18;;;2.92;;
75005;SDS011;63553;51.814;4.600;2023-07-24T10:36:11;4.05;;;2.80;;
75005;SDS011;63553;51.814;4.600;2023-07-24T10:38:41;7.63;;;3.70;;
75005;SDS011;63553;51.814;4.600;2023-07-24T10:41:08;5.75;;;3.03;;
75005;SDS011;63553;51.814;4.600;2023-07-24T10:46:17;3.55;;;2.95;;
75005;SDS011;63553;51.814;4.600;2023-07-24T10:48:44;3.33;;;3.03;;
75005;SDS011;63553;51.814;4.600;2023-07-24T10:51:11;5.40;;;3.05;;
75005;SDS011;63553;51.814;4.600;2023-07-24T10:53:41;3.08;;;2.80;;
75005;SDS011;63553;51.814;4.600;2023-07-24T10:56:10;4.15;;;3.40;;
75005;SDS011;63553;51.814;4.600;2023-07-24T10:58:35;3.15;;;2.83;;
75005;SDS011;63553;51.814;4.600;2023-07-24T11:01:03;3.78;;;3.03;;
75005;SDS011;63553;51.814;4.600;2023-07-24T11:03:30;5.05;;;3.33;;
75005;SDS011;63553;51.814;4.600;2023-07-24T11:05:56;5.43;;;3.42;;
75005;SDS011;63553;51.814;4.600;2023-07-24T11:08:23;6.20;;;3.13;;
75005;SDS011;63553;51.814;4.600;2023-07-24T11:10:49;5.18;;;3.95;;
75005;SDS011;63553;51.814;4.600;2023-07-24T11:15:45;5.35;;;3.50;;
75005;SDS011;63553;51.814;4.600;2023-07-24T11:18:10;5.22;;;3.67;;
75005;SDS011;63553;51.814;4.600;2023-07-24T11:20:54;6.60;;;4.00;;
75005;SDS011;63553;51.814;4.600;2023-07-24T11:23:20;5.28;;;3.80;;
75005;SDS011;63553;51.814;4.600;2023-07-24T11:25:47;4.32;;;3.92;;
75005;SDS011;63553;51.814;4.600;2023-07-24T11:28:14;4.03;;;3.63;;
75005;SDS011;63553;51.814;4.600;2023-07-24T11:30:40;6.00;;;3.28;;
75005;SDS011;63553;51.814;4.600;2023-07-24T11:33:07;3.95;;;3.45;;
75005;SDS011;63553;51.814;4.600;2023-07-24T11:35:34;4.13;;;3.65;;
75005;SDS011;63553;51.814;4.600;2023-07-24T11:38:00;5.05;;;3.33;;
75005;SDS011;63553;51.814;4.600;2023-07-24T11:43:03;4.32;;;3.35;;
75005;SDS011;63553;51.814;4.600;2023-07-24T11:45:29;5.72;;;3.50;;
75005;SDS011;63553;51.814;4.600;2023-07-24T11:47:55;5.45;;;3.28;;
75005;SDS011;63553;51.814;4.600;2023-07-24T11:50:21;4.13;;;3.58;;
75005;SDS011;63553;51.814;4.600;2023-07-24T11:52:48;4.25;;;3.05;;
75005;SDS011;63553;51.814;4.600;2023-07-24T11:55:16;4.10;;;3.00;;
75005;SDS011;63553;51.814;4.600;2023-07-24T11:57:43;3.53;;;3.22;;
75005;SDS011;63553;51.814;4.600;2023-07-24T12:00:21;3.42;;;3.10;;
75005;SDS011;63553;51.814;4.600;2023-07-24T12:02:47;4.80;;;2.90;;
75005;SDS011;63553;51.814;4.600;2023-07-24T12:05:13;2.80;;;2.60;;
75005;SDS011;63553;51.814;4.600;2023-07-24T12:07:39;2.70;;;2.50;;
75005;SDS011;63553;51.814;4.600;2023-07-24T12:10:05;3.20;;;2.90;;
75005;SDS011;63553;51.814;4.600;2023-07-24T12:15:08;4.90;;;2.92;;
75005;SDS011;63553;51.814;4.600;2023-07-24T12:17:33;4.80;;;2.80;;
75005;SDS011;63553;51.814;4.600;2023-07-24T12:19:59;3.85;;;2.88;;
75005;SDS011;63553;51.814;4.600;2023-07-24T12:22:24;4.43;;;2.83;;
75005;SDS011;63553;51.814;4.600;2023-07-24T12:24:50;3.92;;;2.60;;
75005;SDS011;63553;51.814;4.600;2023-07-24T12:27:15;3.67;;;2.72;;
75005;SDS011;63553;51.814;4.600;2023-07-24T12:29:40;3.90;;;2.90;;
75005;SDS011;63553;51.814;4.600;2023-07-24T12:32:06;4.87;;;2.50;;
75005;SDS011;63553;51.814;4.600;2023-07-24T12:34:31;3.03;;;2.60;;
75005;SDS011;63553;51.814;4.600;2023-07-24T12:36:56;3.73;;;2.60;;
75005;SDS011;63553;51.814;4.600;2023-07-24T12:39:24;3.75;;;2.80;;
75005;SDS011;63553;51.814;4.600;2023-07-24T12:41:49;3.13;;;2.83;;
75005;SDS011;63553;51.814;4.600;2023-07-24T12:44:15;4.03;;;2.93;;
75005;SDS011;63553;51.814;4.600;2023-07-24T12:46:40;5.20;;;3.20;;
75005;SDS011;63553;51.814;4.600;2023-07-24T12:49:05;4.72;;;2.80;;
75005;SDS011;63553;51.814;4.600;2023-07-24T12:51:31;3.17;;;2.40;;
75005;SDS011;63553;51.814;4.600;2023-07-24T12:53:56;2.87;;;2.63;;
75005;SDS011;63553;51.814;4.600;2023-07-24T12:56:21;3.60;;;2.77;;
75005;SDS011;63553;51.814;4.600;2023-07-24T12:58:47;3.63;;;2.90;;
75005;SDS011;63553;51.814;4.600;2023-07-24T13:01:12;5.10;;;2.80;;
75005;SDS011;63553;51.814;4.600;2023-07-24T13:03:38;6.90;;;2.60;;
75005;SDS011;63553;51.814;4.600;2023-07-24T13:06:03;3.23;;;2.70;;
75005;SDS011;63553;51.814;4.600;2023-07-24T13:08:28;3.50;;;2.80;;
75005;SDS011;63553;51.814;4.600;2023-07-24T13:10:54;3.80;;;2.67;;
75005;SDS011;63553;51.814;4.600;2023-07-24T13:13:19;4.32;;;2.83;;
75005;SDS011;63553;51.814;4.600;2023-07-24T13:15:44;3.28;;;2.97;;
75005;SDS011;63553;51.814;4.600;2023-07-24T13:18:10;3.78;;;2.85;;
75005;SDS011;63553;51.814;4.600;2023-07-24T13:20:38;3.13;;;2.78;;
75005;SDS011;63553;51.814;4.600;2023-07-24T13:23:04;3.58;;;3.08;;
75005;SDS011;63553;51.814;4.600;2023-07-24T13:25:30;8.23;;;3.10;;
75005;SDS011;63553;51.814;4.600;2023-07-24T13:27:55;4.90;;;3.17;;
75005;SDS011;63553;51.814;4.600;2023-07-24T13:30:20;3.80;;;2.90;;
75005;SDS011;63553;51.814;4.600;2023-07-24T13:32:46;3.15;;;2.70;;
75005;SDS011;63553;51.814;4.600;2023-07-24T13:35:11;4.72;;;3.08;;
75005;SDS011;63553;51.814;4.600;2023-07-24T13:37:36;3.63;;;3.20;;
75005;SDS011;63553;51.814;4.600;2023-07-24T13:40:02;3.93;;;2.50;;
75005;SDS011;63553;51.814;4.600;2023-07-24T13:42:27;3.78;;;2.50;;
75005;SDS011;63553;51.814;4.600;2023-07-24T13:44:53;2.53;;;2.33;;
75005;SDS011;63553;51.814;4.600;2023-07-24T13:47:18;3.28;;;2.10;;
75005;SDS011;63553;51.814;4.600;2023-07-24T13:49:43;2.10;;;2.00;;
75005;SDS011;63553;51.814;4.600;2023-07-24T13:52:09;2.03;;;1.85;;
75005;SDS011;63553;51.814;4.600;2023-07-24T13:54:34;4.23;;;1.80;;
75005;SDS011;63553;51.814;4.600;2023-07-24T13:56:59;2.05;;;1.70;;
75005;SDS011;63553;51.814;4.600;2023-07-24T13:59:25;2.33;;;1.65;;
75005;SDS011;63553;51.814;4.600;2023-07-24T14:01:50;2.08;;;1.67;;
75005;SDS011;63553;51.814;4.600;2023-07-24T14:04:15;1.60;;;1.50;;
75005;SDS011;63553;51.814;4.600;2023-07-24T14:06:41;3.80;;;1.90;;
75005;SDS011;63553;51.814;4.600;2023-07-24T14:09:06;2.72;;;1.77;;
75005;SDS011;63553;51.814;4.600;2023-07-24T14:11:32;5.82;;;1.95;;
75005;SDS011;63553;51.814;4.600;2023-07-24T14:13:57;6.78;;;1.85;;
75005;SDS011;63553;51.814;4.600;2023-07-24T14:16:22;7.63;;;2.17;;
75005;SDS011;63553;51.814;4.600;2023-07-24T14:18:48;12.35;;;1.80;;
75005;SDS011;63553;51.814;4.600;2023-07-24T14:21:13;2.22;;;1.98;;
75005;SDS011;63553;51.814;4.600;2023-07-24T14:23:38;5.00;;;2.23;;
75005;SDS011;63553;51.814;4.600;2023-07-24T14:26:04;2.03;;;1.48;;
75005;SDS011;63553;51.814;4.600;2023-07-24T14:28:29;5.70;;;1.90;;
75005;SDS011;63553;51.814;4.600;2023-07-24T14:30:55;2.75;;;1.60;;
75005;SDS011;63553;51.814;4.600;2023-07-24T14:33:20;4.80;;;1.90;;
75005;SDS011;63553;51.814;4.600;2023-07-24T14:35:47;2.80;;;1.45;;
75005;SDS011;63553;51.814;4.600;2023-07-24T14:38:12;3.72;;;1.63;;
75005;SDS011;63553;51.814;4.600;2023-07-24T14:40:38;3.10;;;1.70;;
75005;SDS011;63553;51.814;4.600;2023-07-24T14:43:04;4.82;;;1.60;;
75005;SDS011;63553;51.814;4.600;2023-07-24T14:45:30;1.70;;;1.60;;
75005;SDS011;63553;51.814;4.600;2023-07-24T14:47:55;3.58;;;1.60;;
75005;SDS011;63553;51.814;4.600;2023-07-24T14:50:20;2.63;;;1.60;;
75005;SDS011;63553;51.814;4.600;2023-07-24T14:52:46;2.00;;;1.67;;
75005;SDS011;63553;51.814;4.600;2023-07-24T14:55:11;1.52;;;1.42;;
75005;SDS011;63553;51.814;4.600;2023-07-24T14:57:36;2.60;;;1.60;;
75005;SDS011;63553;51.814;4.600;2023-07-24T15:00:02;2.50;;;1.50;;